Rochester, Texas
Current Conditions -  °F | °C
As of 5:58 AM on Tuesday 27 Jan 2015 (Local Time) from KDYS Reporting Station
Clear Clear  
Wind Chill: 44°   Ceiling: Unl
Heat Index: 44°   Visibility: 10mi
Dew Point: 34°   Wind: 2mph
Humidity: 66%   Direction: 180°S
Pressure: 30.16"   Gusts: NA
Location:  33.32°N, 99.86°W
Report Text: KDYS 271158Z AUTO 18002KT 10SM CLR 07/01 A3016 RMK AO2 SLP201 T00690009 10137 20069 55000 $
Loading
Personal Weather Stations






























Interactive Weather Map New forecast layout! Learn more

10-Day Weather Forecast

Advertisements
Track Severe Weather on mobile